sensor_id;sensor_type;location;lat;lon;timestamp;P1;durP1;ratioP1;P2;durP2;ratioP2
6197;SDS011;3132;42.622;23.328;2023-09-19T00:01:05;14.83;;;13.73;;
6197;SDS011;3132;42.622;23.328;2023-09-19T00:03:33;14.73;;;13.43;;
6197;SDS011;3132;42.622;23.328;2023-09-19T00:06:02;14.83;;;13.73;;
6197;SDS011;3132;42.622;23.328;2023-09-19T00:08:28;15.33;;;14.23;;
6197;SDS011;3132;42.622;23.328;2023-09-19T00:10:53;16.97;;;14.50;;
6197;SDS011;3132;42.622;23.328;2023-09-19T00:13:19;15.33;;;14.13;;
6197;SDS011;3132;42.622;23.328;2023-09-19T00:15:45;15.40;;;14.20;;
6197;SDS011;3132;42.622;23.328;2023-09-19T00:18:13;15.40;;;14.27;;
6197;SDS011;3132;42.622;23.328;2023-09-19T00:20:40;14.47;;;13.37;;
6197;SDS011;3132;42.622;23.328;2023-09-19T00:23:07;16.80;;;15.40;;
6197;SDS011;3132;42.622;23.328;2023-09-19T00:25:36;14.37;;;13.27;;
6197;SDS011;3132;42.622;23.328;2023-09-19T00:28:02;14.57;;;13.40;;
6197;SDS011;3132;42.622;23.328;2023-09-19T00:30:28;15.87;;;13.90;;
6197;SDS011;3132;42.622;23.328;2023-09-19T00:32:54;16.43;;;14.77;;
6197;SDS011;3132;42.622;23.328;2023-09-19T00:35:20;15.77;;;14.50;;
6197;SDS011;3132;42.622;23.328;2023-09-19T00:37:48;15.93;;;14.47;;
6197;SDS011;3132;42.622;23.328;2023-09-19T00:40:14;15.03;;;13.63;;
6197;SDS011;3132;42.622;23.328;2023-09-19T00:42:44;17.03;;;15.53;;
6197;SDS011;3132;42.622;23.328;2023-09-19T00:45:11;15.50;;;14.10;;
6197;SDS011;3132;42.622;23.328;2023-09-19T00:47:42;15.67;;;14.40;;
6197;SDS011;3132;42.622;23.328;2023-09-19T00:50:11;15.93;;;14.53;;
6197;SDS011;3132;42.622;23.328;2023-09-19T00:52:39;18.63;;;15.80;;
6197;SDS011;3132;42.622;23.328;2023-09-19T00:55:10;15.73;;;14.43;;
6197;SDS011;3132;42.622;23.328;2023-09-19T00:57:39;15.30;;;14.03;;
6197;SDS011;3132;42.622;23.328;2023-09-19T01:00:05;15.13;;;13.83;;
6197;SDS011;3132;42.622;23.328;2023-09-19T01:02:33;16.17;;;14.87;;
6197;SDS011;3132;42.622;23.328;2023-09-19T01:04:59;16.07;;;14.60;;
6197;SDS011;3132;42.622;23.328;2023-09-19T01:07:26;15.27;;;13.97;;
6197;SDS011;3132;42.622;23.328;2023-09-19T01:09:55;14.93;;;13.43;;
6197;SDS011;3132;42.622;23.328;2023-09-19T01:12:25;15.30;;;14.20;;
6197;SDS011;3132;42.622;23.328;2023-09-19T01:15:06;16.00;;;14.50;;
6197;SDS011;3132;42.622;23.328;2023-09-19T01:23:23;14.33;;;13.03;;
6197;SDS011;3132;42.622;23.328;2023-09-19T01:26:01;15.43;;;13.97;;
6197;SDS011;3132;42.622;23.328;2023-09-19T01:31:22;15.97;;;14.60;;
6197;SDS011;3132;42.622;23.328;2023-09-19T01:36:26;16.63;;;15.43;;
6197;SDS011;3132;42.622;23.328;2023-09-19T01:39:00;15.70;;;14.50;;
6197;SDS011;3132;42.622;23.328;2023-09-19T01:41:35;15.63;;;14.33;;
6197;SDS011;3132;42.622;23.328;2023-09-19T01:44:03;15.93;;;14.77;;
6197;SDS011;3132;42.622;23.328;2023-09-19T01:46:34;15.97;;;14.67;;
6197;SDS011;3132;42.622;23.328;2023-09-19T01:49:29;15.23;;;13.97;;
6197;SDS011;3132;42.622;23.328;2023-09-19T01:52:09;15.43;;;14.27;;
6197;SDS011;3132;42.622;23.328;2023-09-19T01:54:48;16.47;;;14.97;;
6197;SDS011;3132;42.622;23.328;2023-09-19T02:00:09;14.47;;;13.40;;
6197;SDS011;3132;42.622;23.328;2023-09-19T02:02:40;16.77;;;15.17;;
6197;SDS011;3132;42.622;23.328;2023-09-19T02:05:09;16.40;;;15.00;;
6197;SDS011;3132;42.622;23.328;2023-09-19T02:07:35;15.60;;;14.07;;
6197;SDS011;3132;42.622;23.328;2023-09-19T02:10:03;16.13;;;14.93;;
6197;SDS011;3132;42.622;23.328;2023-09-19T02:12:30;16.03;;;14.57;;
6197;SDS011;3132;42.622;23.328;2023-09-19T02:14:57;14.70;;;13.47;;
6197;SDS011;3132;42.622;23.328;2023-09-19T02:17:24;17.07;;;15.47;;
6197;SDS011;3132;42.622;23.328;2023-09-19T02:19:55;17.63;;;13.17;;
6197;SDS011;3132;42.622;23.328;2023-09-19T02:22:21;15.07;;;13.87;;
6197;SDS011;3132;42.622;23.328;2023-09-19T02:24:49;16.97;;;15.50;;
6197;SDS011;3132;42.622;23.328;2023-09-19T02:27:15;16.00;;;14.83;;
6197;SDS011;3132;42.622;23.328;2023-09-19T02:29:42;15.70;;;14.43;;
6197;SDS011;3132;42.622;23.328;2023-09-19T02:32:07;16.27;;;15.07;;
6197;SDS011;3132;42.622;23.328;2023-09-19T02:34:34;15.17;;;13.80;;
6197;SDS011;3132;42.622;23.328;2023-09-19T02:37:02;15.90;;;14.60;;
6197;SDS011;3132;42.622;23.328;2023-09-19T02:39:30;16.37;;;14.80;;
6197;SDS011;3132;42.622;23.328;2023-09-19T02:41:56;15.43;;;14.23;;
6197;SDS011;3132;42.622;23.328;2023-09-19T02:44:21;16.17;;;14.70;;
6197;SDS011;3132;42.622;23.328;2023-09-19T02:46:48;15.77;;;14.40;;
6197;SDS011;3132;42.622;23.328;2023-09-19T02:49:14;16.60;;;15.17;;
6197;SDS011;3132;42.622;23.328;2023-09-19T02:51:40;16.13;;;14.90;;
6197;SDS011;3132;42.622;23.328;2023-09-19T02:54:05;16.87;;;15.57;;
6197;SDS011;3132;42.622;23.328;2023-09-19T02:56:31;16.50;;;14.87;;
6197;SDS011;3132;42.622;23.328;2023-09-19T02:58:57;15.90;;;14.60;;
6197;SDS011;3132;42.622;23.328;2023-09-19T03:01:23;16.57;;;15.17;;
6197;SDS011;3132;42.622;23.328;2023-09-19T03:03:48;16.33;;;15.03;;
6197;SDS011;3132;42.622;23.328;2023-09-19T03:06:14;16.77;;;15.40;;
6197;SDS011;3132;42.622;23.328;2023-09-19T03:08:40;16.67;;;15.43;;
6197;SDS011;3132;42.622;23.328;2023-09-19T03:11:10;17.33;;;15.73;;
6197;SDS011;3132;42.622;23.328;2023-09-19T03:13:37;17.67;;;16.17;;
6197;SDS011;3132;42.622;23.328;2023-09-19T03:16:06;16.40;;;14.30;;
6197;SDS011;3132;42.622;23.328;2023-09-19T03:18:32;15.33;;;13.97;;
6197;SDS011;3132;42.622;23.328;2023-09-19T03:20:59;16.60;;;15.17;;
6197;SDS011;3132;42.622;23.328;2023-09-19T03:23:27;16.70;;;15.30;;
6197;SDS011;3132;42.622;23.328;2023-09-19T03:25:56;16.80;;;15.10;;
6197;SDS011;3132;42.622;23.328;2023-09-19T03:28:23;16.90;;;15.07;;
6197;SDS011;3132;42.622;23.328;2023-09-19T03:30:59;16.53;;;15.17;;
6197;SDS011;3132;42.622;23.328;2023-09-19T03:33:28;18.03;;;16.27;;
6197;SDS011;3132;42.622;23.328;2023-09-19T03:35:56;17.87;;;16.27;;
6197;SDS011;3132;42.622;23.328;2023-09-19T03:38:23;16.30;;;14.80;;
6197;SDS011;3132;42.622;23.328;2023-09-19T03:40:48;17.70;;;16.20;;
6197;SDS011;3132;42.622;23.328;2023-09-19T03:43:14;15.80;;;14.50;;
6197;SDS011;3132;42.622;23.328;2023-09-19T03:45:39;16.03;;;14.73;;
6197;SDS011;3132;42.622;23.328;2023-09-19T03:48:11;15.97;;;14.67;;
6197;SDS011;3132;42.622;23.328;2023-09-19T03:50:36;17.00;;;15.17;;
6197;SDS011;3132;42.622;23.328;2023-09-19T03:53:02;15.13;;;13.90;;
6197;SDS011;3132;42.622;23.328;2023-09-19T03:55:28;16.77;;;15.10;;
6197;SDS011;3132;42.622;23.328;2023-09-19T03:57:54;16.83;;;15.33;;
6197;SDS011;3132;42.622;23.328;2023-09-19T04:00:20;15.70;;;14.40;;
6197;SDS011;3132;42.622;23.328;2023-09-19T04:02:47;18.30;;;15.33;;
6197;SDS011;3132;42.622;23.328;2023-09-19T04:05:13;15.87;;;14.57;;
6197;SDS011;3132;42.622;23.328;2023-09-19T04:07:39;16.87;;;15.27;;
6197;SDS011;3132;42.622;23.328;2023-09-19T04:10:04;15.33;;;14.10;;
6197;SDS011;3132;42.622;23.328;2023-09-19T04:12:31;17.77;;;16.20;;
6197;SDS011;3132;42.622;23.328;2023-09-19T04:14:57;16.60;;;14.93;;
6197;SDS011;3132;42.622;23.328;2023-09-19T04:17:23;15.77;;;14.23;;
6197;SDS011;3132;42.622;23.328;2023-09-19T04:19:48;17.00;;;15.27;;
6197;SDS011;3132;42.622;23.328;2023-09-19T04:22:14;15.47;;;14.27;;
6197;SDS011;3132;42.622;23.328;2023-09-19T04:24:39;18.77;;;16.20;;
6197;SDS011;3132;42.622;23.328;2023-09-19T04:27:05;21.70;;;16.43;;
6197;SDS011;3132;42.622;23.328;2023-09-19T04:29:30;26.63;;;15.53;;
6197;SDS011;3132;42.622;23.328;2023-09-19T04:31:56;16.73;;;14.97;;
6197;SDS011;3132;42.622;23.328;2023-09-19T04:34:24;16.43;;;14.83;;
6197;SDS011;3132;42.622;23.328;2023-09-19T04:36:50;18.07;;;16.03;;
6197;SDS011;3132;42.622;23.328;2023-09-19T04:39:15;18.13;;;15.73;;
6197;SDS011;3132;42.622;23.328;2023-09-19T04:41:41;17.33;;;15.83;;
6197;SDS011;3132;42.622;23.328;2023-09-19T04:44:07;17.53;;;16.03;;
6197;SDS011;3132;42.622;23.328;2023-09-19T04:46:33;17.50;;;15.57;;
6197;SDS011;3132;42.622;23.328;2023-09-19T04:48:59;17.67;;;15.93;;
6197;SDS011;3132;42.622;23.328;2023-09-19T04:51:24;16.43;;;15.03;;
6197;SDS011;3132;42.622;23.328;2023-09-19T04:53:51;17.03;;;15.43;;
6197;SDS011;3132;42.622;23.328;2023-09-19T04:56:17;16.87;;;15.17;;
6197;SDS011;3132;42.622;23.328;2023-09-19T04:58:42;18.70;;;16.77;;
6197;SDS011;3132;42.622;23.328;2023-09-19T05:01:07;17.80;;;15.63;;
6197;SDS011;3132;42.622;23.328;2023-09-19T05:03:36;18.83;;;15.40;;
6197;SDS011;3132;42.622;23.328;2023-09-19T05:06:02;16.53;;;15.00;;
6197;SDS011;3132;42.622;23.328;2023-09-19T05:08:28;15.53;;;14.17;;
6197;SDS011;3132;42.622;23.328;2023-09-19T05:10:53;16.60;;;14.90;;
6197;SDS011;3132;42.622;23.328;2023-09-19T05:13:21;17.20;;;15.33;;
6197;SDS011;3132;42.622;23.328;2023-09-19T05:15:48;18.07;;;15.23;;
6197;SDS011;3132;42.622;23.328;2023-09-19T05:18:15;16.27;;;14.27;;
6197;SDS011;3132;42.622;23.328;2023-09-19T05:20:40;17.23;;;15.13;;
6197;SDS011;3132;42.622;23.328;2023-09-19T05:23:06;15.50;;;14.30;;
6197;SDS011;3132;42.622;23.328;2023-09-19T05:25:37;17.20;;;14.47;;
6197;SDS011;3132;42.622;23.328;2023-09-19T05:28:08;15.43;;;14.00;;
6197;SDS011;3132;42.622;23.328;2023-09-19T05:30:36;15.37;;;14.07;;
6197;SDS011;3132;42.622;23.328;2023-09-19T05:33:03;18.60;;;14.17;;
6197;SDS011;3132;42.622;23.328;2023-09-19T05:35:29;14.93;;;13.63;;
6197;SDS011;3132;42.622;23.328;2023-09-19T05:37:56;15.17;;;13.80;;
6197;SDS011;3132;42.622;23.328;2023-09-19T05:40:23;15.67;;;14.47;;
6197;SDS011;3132;42.622;23.328;2023-09-19T05:42:49;15.27;;;13.97;;
6197;SDS011;3132;42.622;23.328;2023-09-19T05:45:15;14.53;;;13.23;;
6197;SDS011;3132;42.622;23.328;2023-09-19T05:47:47;18.50;;;16.60;;
6197;SDS011;3132;42.622;23.328;2023-09-19T05:50:14;18.70;;;14.97;;
6197;SDS011;3132;42.622;23.328;2023-09-19T05:52:41;15.53;;;14.23;;
6197;SDS011;3132;42.622;23.328;2023-09-19T05:55:08;15.70;;;14.20;;
6197;SDS011;3132;42.622;23.328;2023-09-19T05:57:34;14.03;;;12.93;;
6197;SDS011;3132;42.622;23.328;2023-09-19T05:59:59;15.00;;;13.70;;
6197;SDS011;3132;42.622;23.328;2023-09-19T06:02:25;13.90;;;12.83;;
6197;SDS011;3132;42.622;23.328;2023-09-19T06:04:54;15.73;;;14.23;;
6197;SDS011;3132;42.622;23.328;2023-09-19T06:07:20;15.33;;;14.03;;
6197;SDS011;3132;42.622;23.328;2023-09-19T06:09:47;14.60;;;13.40;;
6197;SDS011;3132;42.622;23.328;2023-09-19T06:12:12;14.10;;;12.77;;
6197;SDS011;3132;42.622;23.328;2023-09-19T06:14:42;14.43;;;13.17;;
6197;SDS011;3132;42.622;23.328;2023-09-19T06:17:08;14.73;;;13.33;;
6197;SDS011;3132;42.622;23.328;2023-09-19T06:19:33;15.23;;;12.93;;
6197;SDS011;3132;42.622;23.328;2023-09-19T06:21:59;16.37;;;14.77;;
6197;SDS011;3132;42.622;23.328;2023-09-19T06:24:24;14.87;;;13.47;;
6197;SDS011;3132;42.622;23.328;2023-09-19T06:26:50;16.23;;;14.70;;
6197;SDS011;3132;42.622;23.328;2023-09-19T06:29:17;13.37;;;12.27;;
6197;SDS011;3132;42.622;23.328;2023-09-19T06:31:43;13.83;;;12.63;;
6197;SDS011;3132;42.622;23.328;2023-09-19T06:34:09;14.10;;;12.23;;
6197;SDS011;3132;42.622;23.328;2023-09-19T06:36:35;13.93;;;12.83;;
6197;SDS011;3132;42.622;23.328;2023-09-19T06:39:00;12.97;;;11.87;;
6197;SDS011;3132;42.622;23.328;2023-09-19T06:41:26;12.43;;;11.33;;
6197;SDS011;3132;42.622;23.328;2023-09-19T06:43:51;14.07;;;12.97;;
6197;SDS011;3132;42.622;23.328;2023-09-19T06:46:18;12.80;;;11.90;;
6197;SDS011;3132;42.622;23.328;2023-09-19T06:48:44;13.27;;;12.17;;
6197;SDS011;3132;42.622;23.328;2023-09-19T06:51:09;12.13;;;11.30;;
6197;SDS011;3132;42.622;23.328;2023-09-19T06:53:35;11.83;;;10.77;;
6197;SDS011;3132;42.622;23.328;2023-09-19T06:56:01;12.03;;;10.93;;
6197;SDS011;3132;42.622;23.328;2023-09-19T06:58:27;14.57;;;13.17;;
6197;SDS011;3132;42.622;23.328;2023-09-19T07:00:52;12.47;;;11.37;;
6197;SDS011;3132;42.622;23.328;2023-09-19T07:03:19;12.63;;;11.53;;
6197;SDS011;3132;42.622;23.328;2023-09-19T07:05:46;13.03;;;11.77;;
6197;SDS011;3132;42.622;23.328;2023-09-19T07:08:13;13.40;;;12.30;;
6197;SDS011;3132;42.622;23.328;2023-09-19T07:10:39;12.53;;;11.43;;
6197;SDS011;3132;42.622;23.328;2023-09-19T07:13:06;13.30;;;12.10;;
6197;SDS011;3132;42.622;23.328;2023-09-19T07:15:36;13.57;;;12.43;;
6197;SDS011;3132;42.622;23.328;2023-09-19T07:18:11;12.90;;;11.60;;
6197;SDS011;3132;42.622;23.328;2023-09-19T07:20:39;13.87;;;12.63;;
6197;SDS011;3132;42.622;23.328;2023-09-19T07:23:05;12.70;;;11.70;;
6197;SDS011;3132;42.622;23.328;2023-09-19T07:25:31;13.87;;;12.57;;
6197;SDS011;3132;42.622;23.328;2023-09-19T07:27:57;14.53;;;13.17;;
6197;SDS011;3132;42.622;23.328;2023-09-19T07:30:25;12.83;;;11.67;;
6197;SDS011;3132;42.622;23.328;2023-09-19T07:32:51;12.90;;;11.73;;
6197;SDS011;3132;42.622;23.328;2023-09-19T07:35:17;13.83;;;12.83;;
6197;SDS011;3132;42.622;23.328;2023-09-19T07:37:45;13.10;;;11.90;;
6197;SDS011;3132;42.622;23.328;2023-09-19T07:40:21;12.87;;;11.67;;
6197;SDS011;3132;42.622;23.328;2023-09-19T07:42:48;15.27;;;12.03;;
6197;SDS011;3132;42.622;23.328;2023-09-19T07:45:15;13.23;;;12.10;;
6197;SDS011;3132;42.622;23.328;2023-09-19T07:47:45;15.57;;;12.20;;
6197;SDS011;3132;42.622;23.328;2023-09-19T07:50:12;13.57;;;12.27;;
6197;SDS011;3132;42.622;23.328;2023-09-19T07:52:38;14.33;;;13.07;;
6197;SDS011;3132;42.622;23.328;2023-09-19T07:55:04;14.37;;;12.90;;
6197;SDS011;3132;42.622;23.328;2023-09-19T07:57:34;13.40;;;12.30;;
6197;SDS011;3132;42.622;23.328;2023-09-19T08:00:00;12.47;;;11.33;;
6197;SDS011;3132;42.622;23.328;2023-09-19T08:02:25;13.50;;;12.23;;
6197;SDS011;3132;42.622;23.328;2023-09-19T08:04:51;18.00;;;12.90;;
6197;SDS011;3132;42.622;23.328;2023-09-19T08:07:17;12.97;;;11.77;;
6197;SDS011;3132;42.622;23.328;2023-09-19T08:09:43;14.40;;;12.93;;
6197;SDS011;3132;42.622;23.328;2023-09-19T08:12:13;13.53;;;12.23;;
6197;SDS011;3132;42.622;23.328;2023-09-19T08:14:40;13.90;;;12.60;;
6197;SDS011;3132;42.622;23.328;2023-09-19T08:17:06;14.45;;;13.05;;
6197;SDS011;3132;42.622;23.328;2023-09-19T08:19:33;14.10;;;12.63;;
6197;SDS011;3132;42.622;23.328;2023-09-19T08:21:59;13.48;;;12.05;;
6197;SDS011;3132;42.622;23.328;2023-09-19T08:24:27;13.40;;;12.27;;
6197;SDS011;3132;42.622;23.328;2023-09-19T08:26:57;14.03;;;12.93;;
6197;SDS011;3132;42.622;23.328;2023-09-19T08:29:23;13.57;;;12.27;;
6197;SDS011;3132;42.622;23.328;2023-09-19T08:31:55;14.97;;;13.10;;
6197;SDS011;3132;42.622;23.328;2023-09-19T08:34:24;15.90;;;13.67;;
6197;SDS011;3132;42.622;23.328;2023-09-19T08:36:50;14.93;;;13.47;;
6197;SDS011;3132;42.622;23.328;2023-09-19T08:39:18;15.57;;;13.83;;
6197;SDS011;3132;42.622;23.328;2023-09-19T08:41:44;14.77;;;13.43;;
6197;SDS011;3132;42.622;23.328;2023-09-19T08:44:09;14.13;;;12.52;;
6197;SDS011;3132;42.622;23.328;2023-09-19T08:46:35;15.38;;;14.20;;
6197;SDS011;3132;42.622;23.328;2023-09-19T08:49:21;17.27;;;14.55;;
6197;SDS011;3132;42.622;23.328;2023-09-19T08:54:59;15.35;;;13.95;;
6197;SDS011;3132;42.622;23.328;2023-09-19T08:57:32;18.60;;;14.27;;
6197;SDS011;3132;42.622;23.328;2023-09-19T09:00:00;18.63;;;14.43;;
6197;SDS011;3132;42.622;23.328;2023-09-19T09:02:27;14.73;;;13.43;;
6197;SDS011;3132;42.622;23.328;2023-09-19T09:04:54;13.98;;;12.50;;
6197;SDS011;3132;42.622;23.328;2023-09-19T09:07:22;15.38;;;12.27;;
6197;SDS011;3132;42.622;23.328;2023-09-19T09:09:47;15.20;;;13.70;;
6197;SDS011;3132;42.622;23.328;2023-09-19T09:12:14;13.45;;;12.20;;
6197;SDS011;3132;42.622;23.328;2023-09-19T09:14:40;13.23;;;12.02;;
6197;SDS011;3132;42.622;23.328;2023-09-19T09:17:10;15.60;;;12.48;;
6197;SDS011;3132;42.622;23.328;2023-09-19T09:19:36;17.33;;;12.90;;
6197;SDS011;3132;42.622;23.328;2023-09-19T09:22:05;15.68;;;11.73;;
6197;SDS011;3132;42.622;23.328;2023-09-19T09:24:35;14.27;;;12.80;;
6197;SDS011;3132;42.622;23.328;2023-09-19T09:27:06;112.63;;;20.90;;
6197;SDS011;3132;42.622;23.328;2023-09-19T09:29:41;43.75;;;15.20;;
6197;SDS011;3132;42.622;23.328;2023-09-19T09:32:23;14.65;;;11.68;;
6197;SDS011;3132;42.622;23.328;2023-09-19T09:34:54;13.35;;;11.13;;
6197;SDS011;3132;42.622;23.328;2023-09-19T09:37:22;16.00;;;12.32;;
6197;SDS011;3132;42.622;23.328;2023-09-19T09:39:53;13.27;;;12.02;;
6197;SDS011;3132;42.622;23.328;2023-09-19T09:42:35;14.45;;;13.05;;
6197;SDS011;3132;42.622;23.328;2023-09-19T09:45:17;12.68;;;11.57;;
6197;SDS011;3132;42.622;23.328;2023-09-19T09:47:59;13.57;;;12.48;;
6197;SDS011;3132;42.622;23.328;2023-09-19T09:50:34;13.63;;;12.00;;
6197;SDS011;3132;42.622;23.328;2023-09-19T09:55:57;13.02;;;11.70;;
6197;SDS011;3132;42.622;23.328;2023-09-19T09:58:34;12.25;;;11.15;;
6197;SDS011;3132;42.622;23.328;2023-09-19T10:01:21;13.45;;;12.20;;
6197;SDS011;3132;42.622;23.328;2023-09-19T10:03:52;11.82;;;10.80;;
6197;SDS011;3132;42.622;23.328;2023-09-19T10:06:22;14.95;;;11.45;;
6197;SDS011;3132;42.622;23.328;2023-09-19T10:11:48;24.67;;;12.85;;
6197;SDS011;3132;42.622;23.328;2023-09-19T10:14:30;83.57;;;18.02;;
6197;SDS011;3132;42.622;23.328;2023-09-19T10:16:59;11.68;;;10.63;;
6197;SDS011;3132;42.622;23.328;2023-09-19T10:19:30;13.02;;;11.73;;
6197;SDS011;3132;42.622;23.328;2023-09-19T10:22:02;22.30;;;12.25;;
6197;SDS011;3132;42.622;23.328;2023-09-19T10:24:30;12.73;;;11.65;;
6197;SDS011;3132;42.622;23.328;2023-09-19T10:27:01;12.07;;;10.70;;
6197;SDS011;3132;42.622;23.328;2023-09-19T10:29:29;16.35;;;11.02;;
6197;SDS011;3132;42.622;23.328;2023-09-19T10:32:00;14.15;;;12.85;;
6197;SDS011;3132;42.622;23.328;2023-09-19T10:34:32;13.27;;;11.95;;
6197;SDS011;3132;42.622;23.328;2023-09-19T10:37:00;12.80;;;11.80;;
6197;SDS011;3132;42.622;23.328;2023-09-19T10:39:30;12.25;;;11.20;;
6197;SDS011;3132;42.622;23.328;2023-09-19T10:41:57;12.82;;;11.07;;
6197;SDS011;3132;42.622;23.328;2023-09-19T10:44:31;12.38;;;11.15;;
6197;SDS011;3132;42.622;23.328;2023-09-19T10:46:58;17.42;;;11.57;;
6197;SDS011;3132;42.622;23.328;2023-09-19T10:49:24;14.07;;;12.88;;
6197;SDS011;3132;42.622;23.328;2023-09-19T10:51:51;11.52;;;10.57;;
6197;SDS011;3132;42.622;23.328;2023-09-19T10:54:21;12.70;;;11.45;;
6197;SDS011;3132;42.622;23.328;2023-09-19T10:56:52;11.77;;;10.68;;
6197;SDS011;3132;42.622;23.328;2023-09-19T10:59:19;12.48;;;11.43;;
6197;SDS011;3132;42.622;23.328;2023-09-19T11:04:34;13.00;;;11.43;;
6197;SDS011;3132;42.622;23.328;2023-09-19T11:07:07;11.48;;;10.57;;
6197;SDS011;3132;42.622;23.328;2023-09-19T11:09:45;12.07;;;10.98;;
6197;SDS011;3132;42.622;23.328;2023-09-19T11:15:06;12.52;;;11.10;;
6197;SDS011;3132;42.622;23.328;2023-09-19T11:17:42;128.88;;;20.40;;
6197;SDS011;3132;42.622;23.328;2023-09-19T11:30:33;15.13;;;10.77;;
6197;SDS011;3132;42.622;23.328;2023-09-19T11:46:33;12.45;;;11.40;;
6197;SDS011;3132;42.622;23.328;2023-09-19T11:49:05;13.35;;;11.98;;
6197;SDS011;3132;42.622;23.328;2023-09-19T11:51:41;13.07;;;12.02;;
6197;SDS011;3132;42.622;23.328;2023-09-19T11:54:10;19.05;;;11.25;;
6197;SDS011;3132;42.622;23.328;2023-09-19T11:56:43;13.15;;;11.52;;
6197;SDS011;3132;42.622;23.328;2023-09-19T11:59:09;13.20;;;11.98;;
6197;SDS011;3132;42.622;23.328;2023-09-19T12:01:35;12.98;;;11.77;;
6197;SDS011;3132;42.622;23.328;2023-09-19T12:04:05;11.73;;;10.90;;
6197;SDS011;3132;42.622;23.328;2023-09-19T12:06:33;12.73;;;11.45;;
6197;SDS011;3132;42.622;23.328;2023-09-19T12:08:59;13.45;;;12.05;;
6197;SDS011;3132;42.622;23.328;2023-09-19T12:11:29;12.57;;;11.48;;
6197;SDS011;3132;42.622;23.328;2023-09-19T12:13:58;12.57;;;11.50;;
6197;SDS011;3132;42.622;23.328;2023-09-19T12:16:26;12.50;;;11.52;;
6197;SDS011;3132;42.622;23.328;2023-09-19T12:18:55;13.35;;;11.73;;
6197;SDS011;3132;42.622;23.328;2023-09-19T12:21:29;12.85;;;11.75;;
6197;SDS011;3132;42.622;23.328;2023-09-19T12:26:38;12.80;;;11.48;;
6197;SDS011;3132;42.622;23.328;2023-09-19T12:29:10;11.60;;;10.77;;
6197;SDS011;3132;42.622;23.328;2023-09-19T12:31:46;12.55;;;11.55;;
6197;SDS011;3132;42.622;23.328;2023-09-19T12:34:16;12.23;;;11.30;;
6197;SDS011;3132;42.622;23.328;2023-09-19T12:36:44;13.18;;;12.07;;
6197;SDS011;3132;42.622;23.328;2023-09-19T12:39:10;16.58;;;11.65;;
6197;SDS011;3132;42.622;23.328;2023-09-19T12:41:36;12.57;;;11.27;;
6197;SDS011;3132;42.622;23.328;2023-09-19T12:44:03;12.57;;;11.57;;
6197;SDS011;3132;42.622;23.328;2023-09-19T12:46:33;12.13;;;11.18;;
6197;SDS011;3132;42.622;23.328;2023-09-19T12:49:18;13.30;;;12.32;;
6197;SDS011;3132;42.622;23.328;2023-09-19T12:51:45;12.48;;;11.35;;
6197;SDS011;3132;42.622;23.328;2023-09-19T12:54:11;11.93;;;10.88;;
6197;SDS011;3132;42.622;23.328;2023-09-19T12:56:40;14.55;;;13.15;;
6197;SDS011;3132;42.622;23.328;2023-09-19T12:59:14;11.23;;;10.32;;
6197;SDS011;3132;42.622;23.328;2023-09-19T13:01:40;13.00;;;10.30;;
6197;SDS011;3132;42.622;23.328;2023-09-19T13:06:55;12.13;;;11.05;;
6197;SDS011;3132;42.622;23.328;2023-09-19T13:09:26;11.80;;;11.00;;
6197;SDS011;3132;42.622;23.328;2023-09-19T13:11:59;10.65;;;9.85;;
6197;SDS011;3132;42.622;23.328;2023-09-19T13:14:28;10.98;;;10.25;;
6197;SDS011;3132;42.622;23.328;2023-09-19T13:17:09;11.60;;;10.80;;
6197;SDS011;3132;42.622;23.328;2023-09-19T13:19:49;12.20;;;11.20;;
6197;SDS011;3132;42.622;23.328;2023-09-19T13:25:08;11.13;;;10.05;;
6197;SDS011;3132;42.622;23.328;2023-09-19T13:27:40;12.43;;;11.32;;
6197;SDS011;3132;42.622;23.328;2023-09-19T13:30:19;11.15;;;10.32;;
6197;SDS011;3132;42.622;23.328;2023-09-19T13:32:46;13.18;;;11.90;;
6197;SDS011;3132;42.622;23.328;2023-09-19T13:35:12;13.30;;;11.23;;
6197;SDS011;3132;42.622;23.328;2023-09-19T13:37:39;12.55;;;11.10;;
6197;SDS011;3132;42.622;23.328;2023-09-19T13:40:08;11.98;;;10.98;;
6197;SDS011;3132;42.622;23.328;2023-09-19T13:42:35;12.73;;;11.60;;
6197;SDS011;3132;42.622;23.328;2023-09-19T13:45:04;11.32;;;10.52;;
6197;SDS011;3132;42.622;23.328;2023-09-19T13:47:31;12.60;;;11.45;;
6197;SDS011;3132;42.622;23.328;2023-09-19T13:49:58;11.27;;;10.52;;
6197;SDS011;3132;42.622;23.328;2023-09-19T13:52:23;11.52;;;10.63;;
6197;SDS011;3132;42.622;23.328;2023-09-19T13:54:50;11.57;;;10.77;;
6197;SDS011;3132;42.622;23.328;2023-09-19T13:57:15;13.40;;;12.15;;
6197;SDS011;3132;42.622;23.328;2023-09-19T13:59:41;12.48;;;11.38;;
6197;SDS011;3132;42.622;23.328;2023-09-19T14:02:07;11.88;;;10.98;;
6197;SDS011;3132;42.622;23.328;2023-09-19T14:04:33;12.13;;;10.77;;
6197;SDS011;3132;42.622;23.328;2023-09-19T14:07:00;12.38;;;11.18;;
6197;SDS011;3132;42.622;23.328;2023-09-19T14:09:26;12.00;;;10.82;;
6197;SDS011;3132;42.622;23.328;2023-09-19T14:11:52;12.48;;;11.45;;
6197;SDS011;3132;42.622;23.328;2023-09-19T14:14:20;14.20;;;10.70;;
6197;SDS011;3132;42.622;23.328;2023-09-19T14:16:46;12.45;;;11.35;;
6197;SDS011;3132;42.622;23.328;2023-09-19T14:19:12;14.70;;;11.65;;
6197;SDS011;3132;42.622;23.328;2023-09-19T14:21:39;12.13;;;11.13;;
6197;SDS011;3132;42.622;23.328;2023-09-19T14:24:04;12.30;;;11.25;;
6197;SDS011;3132;42.622;23.328;2023-09-19T14:26:34;12.15;;;11.05;;
6197;SDS011;3132;42.622;23.328;2023-09-19T14:29:00;12.57;;;11.38;;
6197;SDS011;3132;42.622;23.328;2023-09-19T14:31:25;12.32;;;11.38;;
6197;SDS011;3132;42.622;23.328;2023-09-19T14:33:53;12.75;;;11.52;;
6197;SDS011;3132;42.622;23.328;2023-09-19T14:36:20;12.45;;;11.48;;
6197;SDS011;3132;42.622;23.328;2023-09-19T14:38:46;11.77;;;10.63;;
6197;SDS011;3132;42.622;23.328;2023-09-19T14:41:12;12.50;;;11.30;;
6197;SDS011;3132;42.622;23.328;2023-09-19T14:43:38;14.32;;;10.95;;
6197;SDS011;3132;42.622;23.328;2023-09-19T14:46:06;12.20;;;11.23;;
6197;SDS011;3132;42.622;23.328;2023-09-19T14:48:35;11.35;;;10.52;;
6197;SDS011;3132;42.622;23.328;2023-09-19T14:51:02;11.63;;;10.75;;
6197;SDS011;3132;42.622;23.328;2023-09-19T14:53:32;12.93;;;11.85;;
6197;SDS011;3132;42.622;23.328;2023-09-19T14:56:01;13.07;;;11.98;;
6197;SDS011;3132;42.622;23.328;2023-09-19T14:58:33;12.18;;;11.27;;
6197;SDS011;3132;42.622;23.328;2023-09-19T15:01:09;13.13;;;11.98;;
6197;SDS011;3132;42.622;23.328;2023-09-19T15:03:35;12.60;;;11.40;;
6197;SDS011;3132;42.622;23.328;2023-09-19T15:06:05;11.98;;;10.80;;
6197;SDS011;3132;42.622;23.328;2023-09-19T15:08:35;12.95;;;11.63;;
6197;SDS011;3132;42.622;23.328;2023-09-19T15:11:12;12.25;;;11.25;;
6197;SDS011;3132;42.622;23.328;2023-09-19T15:13:45;12.10;;;11.07;;
6197;SDS011;3132;42.622;23.328;2023-09-19T15:16:11;14.63;;;11.90;;
6197;SDS011;3132;42.622;23.328;2023-09-19T15:18:38;13.20;;;11.88;;
6197;SDS011;3132;42.622;23.328;2023-09-19T15:21:07;13.82;;;11.20;;
6197;SDS011;3132;42.622;23.328;2023-09-19T15:23:36;13.13;;;11.77;;
6197;SDS011;3132;42.622;23.328;2023-09-19T15:26:05;12.90;;;11.63;;
6197;SDS011;3132;42.622;23.328;2023-09-19T15:28:32;12.80;;;11.70;;
6197;SDS011;3132;42.622;23.328;2023-09-19T15:31:02;11.52;;;10.57;;
6197;SDS011;3132;42.622;23.328;2023-09-19T15:33:29;13.32;;;12.05;;
6197;SDS011;3132;42.622;23.328;2023-09-19T15:38:28;13.13;;;11.93;;
6197;SDS011;3132;42.622;23.328;2023-09-19T15:40:54;13.50;;;12.20;;
6197;SDS011;3132;42.622;23.328;2023-09-19T15:43:20;13.95;;;12.65;;